createdAt,value
2022-08-11T00:01:25.319Z,15.50
2022-08-11T00:04:01.119Z,15.40
2022-08-11T00:06:31.866Z,15.40
2022-08-11T00:09:00.651Z,15.40
2022-08-11T00:11:38.526Z,15.40
2022-08-11T00:14:16.366Z,15.40
2022-08-11T00:16:52.724Z,15.50
2022-08-11T00:20:13.260Z,15.60
2022-08-11T00:22:21.462Z,15.70
2022-08-11T00:24:53.932Z,15.70
2022-08-11T00:27:36.845Z,15.60
2022-08-11T00:30:06.802Z,15.60
2022-08-11T00:32:34.131Z,15.60
2022-08-11T00:35:51.454Z,15.60
2022-08-11T00:37:53.523Z,15.60
2022-08-11T00:40:53.102Z,15.50
2022-08-11T00:43:51.753Z,15.60
2022-08-11T00:46:27.672Z,15.50
2022-08-11T00:49:08.536Z,15.50
2022-08-11T00:52:02.161Z,15.50
2022-08-11T00:54:38.595Z,15.60
2022-08-11T00:57:53.389Z,15.60
2022-08-11T01:00:23.342Z,15.60
2022-08-11T01:03:27.046Z,15.60
2022-08-11T01:06:32.707Z,15.60
2022-08-11T01:09:25.405Z,15.60
2022-08-11T01:12:29.327Z,15.60
2022-08-11T01:15:57.231Z,15.60
2022-08-11T01:18:46.551Z,15.80
2022-08-11T01:21:36.841Z,15.90
2022-08-11T01:24:42.425Z,16.00
2022-08-11T01:27:27.852Z,16.00
2022-08-11T01:30:03.689Z,16.10
2022-08-11T01:33:07.878Z,16.10
2022-08-11T01:36:14.983Z,16.10
2022-08-11T01:38:47.589Z,16.10
2022-08-11T01:42:02.577Z,16.00
2022-08-11T01:44:54.183Z,16.00
2022-08-11T01:47:53.391Z,16.00
2022-08-11T01:50:57.630Z,16.10
2022-08-11T01:54:06.500Z,16.00
2022-08-11T01:57:02.480Z,15.70
2022-08-11T01:59:33.236Z,15.40
2022-08-11T02:02:21.623Z,15.10
2022-08-11T02:05:11.185Z,14.90
2022-08-11T02:08:03.220Z,14.60
2022-08-11T02:11:18.269Z,14.50
2022-08-11T02:14:12.249Z,14.40
2022-08-11T02:16:57.823Z,14.20
2022-08-11T02:20:11.127Z,14.20
2022-08-11T02:23:58.644Z,14.20
2022-08-11T02:26:14.270Z,14.10
2022-08-11T02:28:47.066Z,14.10
2022-08-11T02:32:29.699Z,14.10
2022-08-11T02:34:44.712Z,14.10
2022-08-11T02:37:58.090Z,14.20
2022-08-11T02:40:55.082Z,14.10
2022-08-11T02:43:47.948Z,14.00
2022-08-11T02:46:31.654Z,14.00
2022-08-11T02:49:23.698Z,13.90
2022-08-11T02:52:14.311Z,13.80
2022-08-11T02:54:59.945Z,13.70
2022-08-11T02:57:37.306Z,13.70
2022-08-11T03:00:09.510Z,13.60
2022-08-11T03:03:00.704Z,13.50
2022-08-11T03:05:32.047Z,13.40
2022-08-11T03:08:08.003Z,13.30
2022-08-11T03:10:43.856Z,13.20
2022-08-11T03:13:37.678Z,13.10
2022-08-11T03:16:46.870Z,13.00
2022-08-11T03:19:47.850Z,13.00
2022-08-11T03:22:27.392Z,12.90
2022-08-11T03:25:12.910Z,13.00
2022-08-11T03:27:46.108Z,12.90
2022-08-11T03:30:15.263Z,12.90
2022-08-11T03:33:19.209Z,13.00
2022-08-11T03:36:08.899Z,12.90
2022-08-11T03:39:01.141Z,13.00
2022-08-11T03:42:01.202Z,12.90
2022-08-11T03:44:50.274Z,12.90
2022-08-11T03:47:36.730Z,12.90
2022-08-11T03:50:26.720Z,12.90
2022-08-11T03:53:12.682Z,12.80
2022-08-11T03:56:00.808Z,12.80
2022-08-11T03:58:46.324Z,12.80
2022-08-11T04:01:22.207Z,12.70
2022-08-11T04:04:08.047Z,12.70
2022-08-11T04:06:59.310Z,12.80
2022-08-11T04:10:03.910Z,12.70
2022-08-11T04:12:56.849Z,12.70
2022-08-11T04:16:11.338Z,12.60
2022-08-11T04:18:48.155Z,12.60
2022-08-11T04:21:29.820Z,12.50
2022-08-11T04:24:33.424Z,12.50
2022-08-11T04:27:19.202Z,12.50
2022-08-11T04:30:08.940Z,12.40
2022-08-11T04:33:16.707Z,12.50
2022-08-11T04:35:56.366Z,12.50
2022-08-11T04:38:28.791Z,12.50
2022-08-11T04:41:33.279Z,12.60
2022-08-11T04:44:15.695Z,12.60
2022-08-11T04:47:10.736Z,12.70
2022-08-11T04:50:20.001Z,12.70
2022-08-11T04:53:23.445Z,12.90
2022-08-11T04:56:24.747Z,13.00
2022-08-11T04:59:37.677Z,13.10
2022-08-11T05:02:35.594Z,13.20
2022-08-11T05:05:32.539Z,13.30
2022-08-11T05:08:05.036Z,13.40
2022-08-11T05:11:07.299Z,13.40
2022-08-11T05:14:04.962Z,13.60
2022-08-11T05:17:00.323Z,13.90
2022-08-11T05:19:46.399Z,16.00
2022-08-11T05:22:33.154Z,18.50
2022-08-11T05:26:44.689Z,20.30
2022-08-11T05:28:56.978Z,21.90
2022-08-11T05:31:51.698Z,23.10
2022-08-11T05:34:44.043Z,24.10
2022-08-11T05:37:29.594Z,24.70
2022-08-11T05:40:26.715Z,25.00
2022-08-11T05:43:20.913Z,25.50
2022-08-11T05:46:21.641Z,24.90
2022-08-11T05:49:09.544Z,25.40
2022-08-11T05:52:05.509Z,26.10
2022-08-11T05:55:06.401Z,26.60
2022-08-11T05:57:39.708Z,26.40
2022-08-11T06:00:19.340Z,26.40
2022-08-11T06:02:51.226Z,26.90
2022-08-11T06:05:32.649Z,27.30
2022-08-11T06:08:10.460Z,27.10
2022-08-11T06:10:40.976Z,27.50
2022-08-11T06:13:10.133Z,27.40
2022-08-11T06:15:49.117Z,27.60
2022-08-11T06:18:17.109Z,27.70
2022-08-11T06:20:56.139Z,28.40
2022-08-11T06:23:25.975Z,28.40
2022-08-11T06:25:56.146Z,28.80
2022-08-11T06:28:36.235Z,28.60
2022-08-11T06:31:11.817Z,29.10
2022-08-11T06:34:27.237Z,29.40
2022-08-11T06:37:02.243Z,29.40
2022-08-11T06:40:03.123Z,28.40
2022-08-11T06:43:21.882Z,28.10
2022-08-11T06:45:57.301Z,28.80
2022-08-11T06:48:25.698Z,28.50
2022-08-11T06:51:12.922Z,28.40
2022-08-11T06:54:03.872Z,29.00
2022-08-11T06:57:28.290Z,29.30
2022-08-11T07:00:07.168Z,28.40
2022-08-11T07:02:42.278Z,28.20
2022-08-11T07:05:17.440Z,28.10
2022-08-11T07:08:35.783Z,28.40
2022-08-11T07:11:40.421Z,28.80
2022-08-11T07:14:26.782Z,28.60
2022-08-11T07:16:54.251Z,28.60
2022-08-11T07:19:44.838Z,28.80
2022-08-11T07:22:31.706Z,28.70
2022-08-11T07:25:21.541Z,29.20
2022-08-11T07:28:14.164Z,29.20
2022-08-11T07:30:42.505Z,29.70
2022-08-11T07:34:04.887Z,30.10
2022-08-11T07:36:00.911Z,29.60
2022-08-11T07:38:47.291Z,29.10
2022-08-11T07:41:16.235Z,28.50
2022-08-11T07:43:46.899Z,28.70
2022-08-11T07:46:32.336Z,28.60
2022-08-11T07:49:18.714Z,27.70
2022-08-11T07:52:05.030Z,28.20
2022-08-11T07:54:33.589Z,27.70
2022-08-11T07:57:09.079Z,28.50
2022-08-11T08:00:07.264Z,28.50
2022-08-11T08:03:01.172Z,28.10
2022-08-11T08:05:48.735Z,28.00
2022-08-11T08:08:34.872Z,28.60
2022-08-11T08:11:27.157Z,29.20
2022-08-11T08:14:14.128Z,29.90
2022-08-11T08:17:00.748Z,29.60
2022-08-11T08:19:28.057Z,28.80
2022-08-11T08:21:55.331Z,29.40
2022-08-11T08:24:41.760Z,29.70
2022-08-11T08:27:12.792Z,29.90
2022-08-11T08:29:59.960Z,30.10
2022-08-11T08:32:28.125Z,30.60
2022-08-11T08:34:57.018Z,29.00
2022-08-11T08:37:45.819Z,28.20
2022-08-11T08:40:14.357Z,28.00
2022-08-11T08:42:51.373Z,27.40
2022-08-11T08:45:18.699Z,27.30
2022-08-11T08:48:08.561Z,27.50
2022-08-11T08:51:03.522Z,26.80
2022-08-11T08:53:35.541Z,26.30
2022-08-11T08:56:03.465Z,26.20
2022-08-11T08:58:32.269Z,27.60
2022-08-11T09:01:00.747Z,26.90
2022-08-11T09:04:05.267Z,27.30
2022-08-11T09:06:17.371Z,27.80
2022-08-11T09:08:45.483Z,27.80
2022-08-11T09:11:32.890Z,27.40
2022-08-11T09:14:06.454Z,26.90
2022-08-11T09:16:39.266Z,27.90
2022-08-11T09:19:08.070Z,27.40
2022-08-11T09:21:48.319Z,26.70
2022-08-11T09:24:34.658Z,27.00
2022-08-11T09:27:06.533Z,26.70
2022-08-11T09:29:34.936Z,27.60
2022-08-11T09:32:02.406Z,28.40
2022-08-11T09:34:29.852Z,28.20
2022-08-11T09:37:54.923Z,28.10
2022-08-11T09:42:23.616Z,28.60
2022-08-11T09:43:33.554Z,29.80
2022-08-11T09:46:01.542Z,30.00
2022-08-11T09:48:38.668Z,29.30
2022-08-11T09:51:07.119Z,29.50
2022-08-11T09:53:41.260Z,29.70
2022-08-11T09:56:33.532Z,29.40
2022-08-11T09:59:01.950Z,28.50
2022-08-11T10:01:35.873Z,28.10
2022-08-11T10:04:24.858Z,28.70
2022-08-11T10:07:05.524Z,28.40
2022-08-11T10:09:52.166Z,28.10
2022-08-11T10:12:42.235Z,28.40
2022-08-11T10:15:30.912Z,28.90
2022-08-11T10:18:20.963Z,29.60
2022-08-11T10:20:50.340Z,29.90
2022-08-11T10:23:36.483Z,29.80
2022-08-11T10:26:44.514Z,28.70
2022-08-11T10:29:36.717Z,27.20
2022-08-11T10:32:29.520Z,27.70
2022-08-11T10:35:01.294Z,27.50
2022-08-11T10:38:06.048Z,27.80
2022-08-11T10:40:23.382Z,28.10
2022-08-11T10:43:06.951Z,27.70
2022-08-11T10:45:56.894Z,27.40
2022-08-11T10:48:26.819Z,28.10
2022-08-11T10:51:13.364Z,27.90
2022-08-11T10:54:03.029Z,28.60
2022-08-11T10:56:52.116Z,29.80
2022-08-11T10:59:19.471Z,29.20
2022-08-11T11:01:47.003Z,28.60
2022-08-11T11:05:01.075Z,29.50
2022-08-11T11:07:45.157Z,29.80
2022-08-11T11:10:12.050Z,29.90
2022-08-11T11:13:05.262Z,29.50
2022-08-11T11:15:54.293Z,29.30
2022-08-11T11:18:25.092Z,29.80
2022-08-11T11:21:00.216Z,29.30
2022-08-11T11:23:41.831Z,29.60
2022-08-11T11:26:32.477Z,28.90
2022-08-11T11:29:38.067Z,28.50
2022-08-11T11:32:24.971Z,29.50
2022-08-11T11:35:29.473Z,29.40
2022-08-11T11:38:04.192Z,30.10
2022-08-11T11:40:33.521Z,30.30
2022-08-11T11:43:01.515Z,30.50
2022-08-11T11:45:28.815Z,30.00
2022-08-11T11:47:59.145Z,30.20
2022-08-11T11:50:37.665Z,29.40
2022-08-11T11:53:10.442Z,29.60
2022-08-11T11:55:37.840Z,30.50
2022-08-11T11:58:24.559Z,30.40
2022-08-11T12:01:12.060Z,30.20
2022-08-11T12:03:40.351Z,30.30
2022-08-11T12:06:09.218Z,29.50
2022-08-11T12:08:37.579Z,29.80
2022-08-11T12:11:27.332Z,29.90
2022-08-11T12:13:56.674Z,29.80
2022-08-11T12:16:33.573Z,29.90
2022-08-11T12:19:24.559Z,30.70
2022-08-11T12:22:13.571Z,29.90
2022-08-11T12:24:59.884Z,29.50
2022-08-11T12:27:28.112Z,29.70
2022-08-11T12:29:58.008Z,30.30
2022-08-11T12:32:30.225Z,30.30
2022-08-11T12:34:57.923Z,29.00
2022-08-11T12:37:31.165Z,29.30
2022-08-11T12:40:43.804Z,29.50
2022-08-11T12:43:39.899Z,30.30
2022-08-11T12:46:14.181Z,30.20
2022-08-11T12:49:04.479Z,30.20
2022-08-11T12:52:06.815Z,30.50
2022-08-11T12:54:49.860Z,30.60
2022-08-11T12:57:56.910Z,30.40
2022-08-11T13:00:44.406Z,29.20
2022-08-11T13:03:32.416Z,28.20
2022-08-11T13:06:04.948Z,28.90
2022-08-11T13:08:37.229Z,29.50
2022-08-11T13:11:23.574Z,30.20
2022-08-11T13:13:57.130Z,30.70
2022-08-11T13:16:31.399Z,30.30
2022-08-11T13:19:00.954Z,30.60
2022-08-11T13:21:28.774Z,30.60
2022-08-11T13:24:01.448Z,30.70
2022-08-11T13:26:46.941Z,30.60
2022-08-11T13:29:27.111Z,30.30
2022-08-11T13:32:00.692Z,29.80
2022-08-11T13:34:31.044Z,30.10
2022-08-11T13:37:01.010Z,29.80
2022-08-11T13:39:30.991Z,29.30
2022-08-11T13:42:00.248Z,29.20
2022-08-11T13:44:30.183Z,29.60
2022-08-11T13:47:02.357Z,29.80
2022-08-11T13:49:31.057Z,29.80
2022-08-11T13:51:59.116Z,30.10
2022-08-11T13:54:28.187Z,30.30
2022-08-11T13:56:57.273Z,30.10
2022-08-11T13:59:29.637Z,30.20
2022-08-11T14:02:22.167Z,29.50
2022-08-11T14:04:57.668Z,29.40
2022-08-11T14:07:35.287Z,29.60
2022-08-11T14:10:04.612Z,29.70
2022-08-11T14:12:53.190Z,30.10
2022-08-11T14:15:25.005Z,30.20
2022-08-11T14:18:05.277Z,29.60
2022-08-11T14:20:53.445Z,28.30
2022-08-11T14:23:35.433Z,28.40
2022-08-11T14:26:21.601Z,29.40
2022-08-11T14:28:49.084Z,29.80
2022-08-11T14:31:16.824Z,29.70
2022-08-11T14:33:58.858Z,29.40
2022-08-11T14:36:42.445Z,29.30
2022-08-11T14:39:17.011Z,29.40
2022-08-11T14:42:17.810Z,29.40
2022-08-11T14:45:07.066Z,29.30
2022-08-11T14:47:37.060Z,29.30
2022-08-11T14:50:11.186Z,29.10
2022-08-11T14:52:43.489Z,28.20
2022-08-11T14:55:30.303Z,28.10
2022-08-11T14:57:57.650Z,28.20
2022-08-11T15:00:26.068Z,27.80
2022-08-11T15:03:13.975Z,28.30
2022-08-11T15:05:55.970Z,28.40
2022-08-11T15:08:56.841Z,28.30
2022-08-11T15:11:51.131Z,28.70
2022-08-11T15:14:38.201Z,28.50
2022-08-11T15:17:09.933Z,28.60
2022-08-11T15:20:00.436Z,28.70
2022-08-11T15:22:45.894Z,28.80
2022-08-11T15:25:13.024Z,28.80
2022-08-11T15:28:00.923Z,28.80
2022-08-11T15:31:02.398Z,28.50
2022-08-11T15:33:50.164Z,28.50
2022-08-11T15:36:35.553Z,28.80
2022-08-11T15:39:27.278Z,28.90
2022-08-11T15:42:15.880Z,27.90
2022-08-11T15:45:05.832Z,27.50
2022-08-11T15:47:41.667Z,27.10
2022-08-11T15:50:15.252Z,27.50
2022-08-11T15:52:59.199Z,27.40
2022-08-11T15:55:28.482Z,27.20
2022-08-11T15:58:14.803Z,27.50
2022-08-11T16:01:04.146Z,27.70
2022-08-11T16:04:08.950Z,27.90
2022-08-11T16:06:44.843Z,27.70
2022-08-11T16:09:21.082Z,27.60
2022-08-11T16:11:49.632Z,27.40
2022-08-11T16:14:37.307Z,27.40
2022-08-11T16:17:07.068Z,27.10
2022-08-11T16:19:36.531Z,27.10
2022-08-11T16:22:08.035Z,27.10
2022-08-11T16:27:01.927Z,27.30
2022-08-11T16:27:35.292Z,27.30
2022-08-11T16:30:05.106Z,27.00
2022-08-11T16:32:33.438Z,27.00
2022-08-11T16:35:26.045Z,26.90
2022-08-11T16:38:13.384Z,26.90
2022-08-11T16:40:41.715Z,26.70
2022-08-11T16:43:32.290Z,26.60
2022-08-11T16:46:18.971Z,26.50
2022-08-11T16:48:48.571Z,26.50
2022-08-11T16:51:15.796Z,26.40
2022-08-11T16:53:59.409Z,26.40
2022-08-11T16:56:36.430Z,26.20
2022-08-11T16:59:18.244Z,26.20
2022-08-11T17:01:53.667Z,26.10
2022-08-11T17:04:56.623Z,25.90
2022-08-11T17:07:43.979Z,25.90
2022-08-11T17:11:03.172Z,25.80
2022-08-11T17:13:49.571Z,25.70
2022-08-11T17:16:23.456Z,25.70
2022-08-11T17:19:10.005Z,25.70
2022-08-11T17:22:01.183Z,25.60
2022-08-11T17:24:31.484Z,25.50
2022-08-11T17:27:00.755Z,25.40
2022-08-11T17:29:54.624Z,25.40
2022-08-11T17:32:56.969Z,25.30
2022-08-11T17:35:33.124Z,25.20
2022-08-11T17:38:10.930Z,25.10
2022-08-11T17:41:01.246Z,25.00
2022-08-11T17:43:48.595Z,24.90
2022-08-11T17:46:35.605Z,24.80
2022-08-11T17:49:03.944Z,24.80
2022-08-11T17:51:50.392Z,24.70
2022-08-11T17:54:36.989Z,24.60
2022-08-11T17:57:28.945Z,24.50
2022-08-11T17:59:57.910Z,24.30
2022-08-11T18:02:56.012Z,24.30
2022-08-11T18:05:26.893Z,24.10
2022-08-11T18:08:15.407Z,24.00
2022-08-11T18:11:02.535Z,24.00
2022-08-11T18:13:51.547Z,23.90
2022-08-11T18:16:37.967Z,23.80
2022-08-11T18:19:25.049Z,23.60
2022-08-11T18:22:16.166Z,23.60
2022-08-11T18:25:12.920Z,23.50
2022-08-11T18:28:02.725Z,23.30
2022-08-11T18:30:54.598Z,23.20
2022-08-11T18:34:08.536Z,23.10
2022-08-11T18:37:04.511Z,23.00
2022-08-11T18:39:56.141Z,22.90
2022-08-11T18:42:43.333Z,22.80
2022-08-11T18:45:33.064Z,22.70
2022-08-11T18:48:35.973Z,22.60
2022-08-11T18:51:31.487Z,22.50
2022-08-11T18:54:28.282Z,22.40
2022-08-11T18:57:18.309Z,22.20
2022-08-11T19:00:05.683Z,22.10
2022-08-11T19:02:53.675Z,22.00
2022-08-11T19:06:05.896Z,21.80
2022-08-11T19:08:59.731Z,21.70
2022-08-11T19:11:47.802Z,21.60
2022-08-11T19:14:37.030Z,21.40
2022-08-11T19:17:44.619Z,21.30
2022-08-11T19:20:35.582Z,21.30
2022-08-11T19:23:23.162Z,21.30
2022-08-11T19:26:09.529Z,21.20
2022-08-11T19:28:57.809Z,21.20
2022-08-11T19:31:45.240Z,21.10
2022-08-11T19:34:35.394Z,21.00
2022-08-11T19:37:24.743Z,20.90
2022-08-11T19:40:24.784Z,20.70
2022-08-11T19:43:15.725Z,20.50
2022-08-11T19:46:11.562Z,20.30
2022-08-11T19:49:00.014Z,20.00
2022-08-11T19:51:47.034Z,19.80
2022-08-11T19:54:42.145Z,19.70
2022-08-11T19:57:28.182Z,19.50
2022-08-11T20:00:14.328Z,19.30
2022-08-11T20:02:59.830Z,19.20
2022-08-11T20:05:55.672Z,19.00
2022-08-11T20:08:47.895Z,18.80
2022-08-11T20:11:35.964Z,18.70
2022-08-11T20:14:22.332Z,18.60
2022-08-11T20:17:08.837Z,18.40
2022-08-11T20:19:57.615Z,18.30
2022-08-11T20:22:49.185Z,18.20
2022-08-11T20:25:36.726Z,18.20
2022-08-11T20:28:24.205Z,18.20
2022-08-11T20:31:11.052Z,18.20
2022-08-11T20:33:58.470Z,18.30
2022-08-11T20:36:47.607Z,18.30
2022-08-11T20:39:41.374Z,18.30
2022-08-11T20:42:30.480Z,18.30
2022-08-11T20:45:23.285Z,18.40
2022-08-11T20:48:14.701Z,18.30
2022-08-11T20:51:06.365Z,18.40
2022-08-11T20:53:57.571Z,18.50
2022-08-11T20:56:47.623Z,18.50
2022-08-11T20:59:49.273Z,18.50
2022-08-11T21:02:44.778Z,18.40
2022-08-11T21:06:09.412Z,18.40
2022-08-11T21:08:42.494Z,18.40
2022-08-11T21:11:30.595Z,18.30
2022-08-11T21:14:18.598Z,18.20
2022-08-11T21:17:27.087Z,18.00
2022-08-11T21:20:21.161Z,18.00
2022-08-11T21:23:19.983Z,17.90
2022-08-11T21:26:13.247Z,17.70
2022-08-11T21:28:59.620Z,17.60
2022-08-11T21:31:48.534Z,17.50
2022-08-11T21:34:37.158Z,17.40
2022-08-11T21:37:24.669Z,17.40
2022-08-11T21:40:16.370Z,17.30
2022-08-11T21:43:04.738Z,17.30
2022-08-11T21:45:53.001Z,17.20
2022-08-11T21:48:40.132Z,17.10
2022-08-11T21:51:25.569Z,17.00
2022-08-11T21:54:12.517Z,16.90
2022-08-11T21:56:58.349Z,17.10
2022-08-11T22:00:10.830Z,17.20
2022-08-11T22:02:57.492Z,17.10
2022-08-11T22:05:44.373Z,17.00
2022-08-11T22:08:31.460Z,16.90
2022-08-11T22:11:31.827Z,16.90
2022-08-11T22:14:19.606Z,16.90
2022-08-11T22:17:04.861Z,16.80
2022-08-11T22:19:50.710Z,16.70
2022-08-11T22:22:52.566Z,16.60
2022-08-11T22:25:51.662Z,16.50
2022-08-11T22:28:43.171Z,16.40
2022-08-11T22:31:30.156Z,16.40
2022-08-11T22:34:15.404Z,16.30
2022-08-11T22:37:02.444Z,16.30
2022-08-11T22:40:02.388Z,16.20
2022-08-11T22:42:53.051Z,16.10
2022-08-11T22:45:39.284Z,16.10
2022-08-11T22:48:26.259Z,16.00
2022-08-11T22:51:13.553Z,15.90
2022-08-11T22:53:59.983Z,15.80
2022-08-11T22:56:46.768Z,15.70
2022-08-11T22:59:34.280Z,15.70
2022-08-11T23:02:21.173Z,15.70
2022-08-11T23:05:08.839Z,15.60
2022-08-11T23:07:55.983Z,15.60
2022-08-11T23:10:42.882Z,15.50
2022-08-11T23:13:29.223Z,15.40
2022-08-11T23:16:15.211Z,15.50
2022-08-11T23:19:01.536Z,15.40
2022-08-11T23:21:47.491Z,15.40
2022-08-11T23:24:33.462Z,15.30
2022-08-11T23:27:20.976Z,15.40
2022-08-11T23:30:08.828Z,15.30
2022-08-11T23:32:55.460Z,15.20
2022-08-11T23:35:52.666Z,15.30
2022-08-11T23:38:40.840Z,15.50
2022-08-11T23:41:26.251Z,15.50
2022-08-11T23:44:12.640Z,15.50
2022-08-11T23:46:59.115Z,15.60
2022-08-11T23:49:46.093Z,15.60
2022-08-11T23:52:33.488Z,15.60
2022-08-11T23:55:18.836Z,15.50
2022-08-11T23:58:05.048Z,15.60
